createdAt,value
2018-09-26T00:00:24.148Z,55.13
2018-09-26T00:00:55.750Z,55.14
2018-09-26T00:01:27.350Z,55.14
2018-09-26T00:01:58.944Z,55.14
2018-09-26T00:02:30.546Z,55.12
2018-09-26T00:03:02.158Z,55.05
2018-09-26T00:03:33.748Z,55.12
2018-09-26T00:04:05.383Z,55.11
2018-09-26T00:04:36.986Z,55.08
2018-09-26T00:05:08.595Z,55.06
2018-09-26T00:05:40.174Z,55.08
2018-09-26T00:06:11.768Z,55.07
2018-09-26T00:06:43.361Z,55.08
2018-09-26T00:07:14.952Z,55.04
2018-09-26T00:07:46.558Z,55.06
2018-09-26T00:08:18.194Z,55.06
2018-09-26T00:08:49.789Z,55.12
2018-09-26T00:09:21.380Z,55.12
2018-09-26T00:09:53.014Z,55.11
2018-09-26T00:10:24.609Z,55.07
2018-09-26T00:10:56.196Z,55.07
2018-09-26T00:11:27.780Z,55.07
2018-09-26T00:11:59.383Z,55.11
2018-09-26T00:12:30.964Z,55.15
2018-09-26T00:13:02.564Z,55.11
2018-09-26T00:13:34.156Z,55.11
2018-09-26T00:14:05.758Z,55.09
2018-09-26T00:14:37.362Z,55.08
2018-09-26T00:15:08.981Z,55.10
2018-09-26T00:15:40.572Z,55.10
2018-09-26T00:16:12.178Z,55.11
2018-09-26T00:16:43.772Z,55.10
2018-09-26T00:17:15.378Z,55.13
2018-09-26T00:17:46.968Z,55.14
2018-09-26T00:18:18.574Z,55.10
2018-09-26T00:18:50.154Z,55.10
2018-09-26T00:19:21.744Z,55.05
2018-09-26T00:19:53.345Z,55.06
2018-09-26T00:20:24.970Z,55.05
2018-09-26T00:20:56.563Z,55.05
2018-09-26T00:21:28.152Z,55.04
2018-09-26T00:21:59.754Z,55.02
2018-09-26T00:22:31.338Z,55.02
2018-09-26T00:23:02.924Z,55.00
2018-09-26T00:23:34.525Z,55.00
2018-09-26T00:24:06.130Z,54.95
2018-09-26T00:24:37.720Z,54.95
2018-09-26T00:25:09.343Z,54.94
2018-09-26T00:25:40.950Z,55.23
2018-09-26T00:26:12.545Z,55.57
2018-09-26T00:26:44.133Z,55.66
2018-09-26T00:27:15.746Z,55.47
2018-09-26T00:27:47.350Z,55.50
2018-09-26T00:28:18.955Z,55.42
2018-09-26T00:28:50.561Z,55.40
2018-09-26T00:29:22.173Z,55.42
2018-09-26T00:29:53.760Z,55.51
2018-09-26T00:30:25.391Z,55.69
2018-09-26T00:30:56.991Z,55.71
2018-09-26T00:31:28.589Z,55.79
2018-09-26T00:32:00.194Z,55.85
2018-09-26T00:32:31.774Z,55.87
2018-09-26T00:33:03.375Z,56.01
2018-09-26T00:33:34.969Z,55.98
2018-09-26T00:34:06.578Z,56.06
2018-09-26T00:34:38.163Z,56.11
2018-09-26T00:35:09.756Z,56.11
2018-09-26T00:35:41.361Z,56.18
2018-09-26T00:36:13.109Z,56.16
2018-09-26T00:36:44.564Z,56.21
2018-09-26T00:37:16.167Z,56.24
2018-09-26T00:37:47.800Z,56.31
2018-09-26T00:38:19.386Z,56.43
2018-09-26T00:38:51.004Z,56.68
2018-09-26T00:39:22.612Z,56.94
2018-09-26T00:39:54.216Z,56.83
2018-09-26T00:40:25.813Z,56.85
2018-09-26T00:40:57.424Z,56.87
2018-09-26T00:41:29.026Z,56.87
2018-09-26T00:42:00.617Z,56.93
2018-09-26T00:42:32.208Z,56.97
2018-09-26T00:43:03.784Z,57.03
2018-09-26T00:43:35.386Z,56.93
2018-09-26T00:44:06.990Z,57.40
2018-09-26T00:44:38.579Z,57.54
2018-09-26T00:45:10.155Z,57.44
2018-09-26T00:45:41.749Z,57.33
2018-09-26T00:46:13.340Z,57.31
2018-09-26T00:46:44.946Z,57.29
2018-09-26T00:47:16.546Z,57.29
2018-09-26T00:47:48.142Z,57.27
2018-09-26T00:48:19.736Z,57.21
2018-09-26T00:48:51.345Z,57.12
2018-09-26T00:49:22.928Z,57.13
2018-09-26T00:49:54.534Z,57.04
2018-09-26T00:50:26.283Z,57.03
2018-09-26T00:50:57.888Z,57.07
2018-09-26T00:51:29.491Z,57.12
2018-09-26T00:52:01.089Z,57.08
2018-09-26T00:52:32.680Z,57.09
2018-09-26T00:53:04.272Z,57.00
2018-09-26T00:53:35.879Z,57.00
2018-09-26T00:54:07.488Z,56.99
2018-09-26T00:54:39.089Z,56.95
2018-09-26T00:55:10.688Z,56.94
2018-09-26T00:55:42.491Z,56.90
2018-09-26T00:56:14.081Z,56.95
2018-09-26T00:56:45.672Z,57.21
2018-09-26T00:57:17.250Z,57.26
2018-09-26T00:57:48.837Z,57.11
2018-09-26T00:58:20.431Z,57.19
2018-09-26T00:58:52.031Z,57.20
2018-09-26T00:59:23.620Z,57.22
2018-09-26T00:59:55.222Z,57.24
2018-09-26T01:00:26.809Z,57.25
2018-09-26T01:00:58.431Z,57.27
2018-09-26T01:01:30.009Z,57.24
2018-09-26T01:02:01.597Z,57.27
2018-09-26T01:02:33.169Z,57.22
2018-09-26T01:03:04.761Z,57.21
2018-09-26T01:03:36.357Z,57.18
2018-09-26T01:04:07.948Z,57.19
2018-09-26T01:04:39.525Z,57.17
2018-09-26T01:05:11.093Z,57.14
2018-09-26T01:05:42.692Z,57.17
2018-09-26T01:06:14.285Z,57.17
2018-09-26T01:06:45.878Z,57.21
2018-09-26T01:07:17.473Z,57.25
2018-09-26T01:07:49.046Z,57.26
2018-09-26T01:08:20.613Z,57.27
2018-09-26T01:08:52.204Z,57.27
2018-09-26T01:09:23.773Z,57.37
2018-09-26T01:09:55.364Z,57.30
2018-09-26T01:10:26.957Z,57.37
2018-09-26T01:10:58.532Z,57.35
2018-09-26T01:11:30.124Z,57.37
2018-09-26T01:12:01.689Z,57.39
2018-09-26T01:12:33.285Z,57.42
2018-09-26T01:13:04.862Z,57.41
2018-09-26T01:13:36.448Z,57.42
2018-09-26T01:14:08.021Z,57.43
2018-09-26T01:14:39.589Z,57.45
2018-09-26T01:15:11.191Z,57.45
2018-09-26T01:15:42.794Z,57.47
2018-09-26T01:16:14.413Z,57.46
2018-09-26T01:16:46.014Z,57.48
2018-09-26T01:17:17.605Z,57.77
2018-09-26T01:17:49.192Z,57.75
2018-09-26T01:18:20.843Z,57.92
2018-09-26T01:18:52.425Z,57.86
2018-09-26T01:19:24.020Z,57.85
2018-09-26T01:19:55.592Z,57.85
2018-09-26T01:20:27.185Z,57.86
2018-09-26T01:20:58.781Z,57.79
2018-09-26T01:21:30.401Z,57.97
2018-09-26T01:22:01.996Z,57.86
2018-09-26T01:22:33.569Z,58.07
2018-09-26T01:23:05.136Z,58.11
2018-09-26T01:23:36.704Z,58.11
2018-09-26T01:24:08.273Z,58.01
2018-09-26T01:24:39.862Z,57.99
2018-09-26T01:25:11.456Z,58.02
2018-09-26T01:25:43.049Z,58.04
2018-09-26T01:26:14.648Z,58.08
2018-09-26T01:26:46.217Z,58.07
2018-09-26T01:27:17.789Z,57.83
2018-09-26T01:27:49.372Z,57.69
2018-09-26T01:28:20.947Z,57.70
2018-09-26T01:28:52.517Z,57.66
2018-09-26T01:29:24.121Z,57.54
2018-09-26T01:29:55.717Z,57.59
2018-09-26T01:30:27.313Z,57.52
2018-09-26T01:30:58.905Z,57.43
2018-09-26T01:31:30.534Z,58.47
2018-09-26T01:32:02.124Z,58.33
2018-09-26T01:32:33.726Z,58.18
2018-09-26T01:33:05.316Z,58.22
2018-09-26T01:33:36.922Z,58.20
2018-09-26T01:34:08.527Z,58.20
2018-09-26T01:34:40.116Z,58.17
2018-09-26T01:35:11.708Z,58.14
2018-09-26T01:35:43.356Z,58.12
2018-09-26T01:36:14.948Z,58.12
2018-09-26T01:36:46.584Z,58.10
2018-09-26T01:37:18.186Z,58.11
2018-09-26T01:37:49.777Z,58.12
2018-09-26T01:38:21.368Z,58.12
2018-09-26T01:38:52.960Z,58.07
2018-09-26T01:39:24.563Z,58.13
2018-09-26T01:39:56.161Z,58.16
2018-09-26T01:40:27.738Z,58.16
2018-09-26T01:40:59.332Z,58.17
2018-09-26T01:41:31.013Z,58.12
2018-09-26T01:42:02.583Z,58.09
2018-09-26T01:42:34.171Z,58.05
2018-09-26T01:43:05.775Z,58.00
2018-09-26T01:43:37.387Z,57.97
2018-09-26T01:44:08.987Z,57.95
2018-09-26T01:44:40.590Z,57.94
2018-09-26T01:45:12.198Z,57.86
2018-09-26T01:45:43.806Z,57.86
2018-09-26T01:46:15.413Z,57.89
2018-09-26T01:46:47.138Z,57.90
2018-09-26T01:47:18.743Z,57.88
2018-09-26T01:47:50.322Z,57.84
2018-09-26T01:48:21.930Z,57.82
2018-09-26T01:48:53.539Z,57.81
2018-09-26T01:49:25.119Z,57.82
2018-09-26T01:49:56.722Z,57.81
2018-09-26T01:50:28.326Z,57.80
2018-09-26T01:50:59.931Z,57.74
2018-09-26T01:51:31.544Z,57.75
2018-09-26T01:52:03.164Z,57.75
2018-09-26T01:52:34.767Z,57.73
2018-09-26T01:53:06.356Z,57.74
2018-09-26T01:53:37.957Z,57.72
2018-09-26T01:54:09.548Z,57.68
2018-09-26T01:54:41.139Z,57.70
2018-09-26T01:55:12.728Z,57.67
2018-09-26T01:55:44.321Z,57.65
2018-09-26T01:56:15.913Z,57.63
2018-09-26T01:56:47.514Z,57.62
2018-09-26T01:57:19.136Z,57.59
2018-09-26T01:57:50.739Z,57.60
2018-09-26T01:58:22.350Z,57.74
2018-09-26T01:58:53.935Z,57.78
2018-09-26T01:59:25.547Z,57.66
2018-09-26T01:59:57.150Z,57.58
2018-09-26T02:00:28.755Z,57.54
2018-09-26T02:01:00.362Z,56.78
2018-09-26T02:01:31.972Z,57.12
2018-09-26T02:02:03.700Z,55.23
2018-09-26T02:02:35.310Z,53.58
2018-09-26T02:03:06.954Z,52.01
2018-09-26T02:03:38.558Z,52.42
2018-09-26T02:04:10.172Z,55.50
2018-09-26T02:04:41.782Z,56.06
2018-09-26T02:05:13.378Z,55.26
2018-09-26T02:05:44.972Z,54.88
2018-09-26T02:06:16.569Z,54.65
2018-09-26T02:06:48.212Z,54.59
2018-09-26T02:07:19.804Z,54.49
2018-09-26T02:07:51.392Z,54.44
2018-09-26T02:08:23.010Z,54.95
2018-09-26T02:08:54.605Z,55.20
2018-09-26T02:09:26.246Z,55.54
2018-09-26T02:09:57.832Z,55.43
2018-09-26T02:10:29.438Z,55.27
2018-09-26T02:11:01.042Z,55.21
2018-09-26T02:11:32.636Z,55.26
2018-09-26T02:12:04.238Z,55.14
2018-09-26T02:12:35.815Z,55.03
2018-09-26T02:13:07.422Z,55.15
2018-09-26T02:13:39.091Z,55.21
2018-09-26T02:14:10.698Z,55.22
2018-09-26T02:14:42.295Z,55.24
2018-09-26T02:15:13.905Z,55.15
2018-09-26T02:15:45.511Z,55.22
2018-09-26T02:16:17.118Z,55.50
2018-09-26T02:16:48.715Z,55.58
2018-09-26T02:17:20.324Z,55.55
2018-09-26T02:17:51.926Z,55.60
2018-09-26T02:18:23.521Z,55.63
2018-09-26T02:18:55.154Z,55.63
2018-09-26T02:19:26.744Z,55.64
2018-09-26T02:19:58.428Z,55.65
2018-09-26T02:20:30.074Z,55.65
2018-09-26T02:21:01.655Z,55.71
2018-09-26T02:21:33.259Z,55.72
2018-09-26T02:22:04.866Z,55.72
2018-09-26T02:22:36.446Z,55.72
2018-09-26T02:23:08.056Z,55.76
2018-09-26T02:23:39.692Z,55.93
2018-09-26T02:24:11.283Z,56.05
2018-09-26T02:24:42.930Z,55.92
2018-09-26T02:25:14.534Z,55.92
2018-09-26T02:25:46.128Z,55.89
2018-09-26T02:26:17.734Z,55.87
2018-09-26T02:26:49.328Z,55.91
2018-09-26T02:27:20.920Z,56.16
2018-09-26T02:27:52.522Z,56.14
2018-09-26T02:28:24.116Z,56.19
2018-09-26T02:28:55.763Z,56.18
2018-09-26T02:29:27.371Z,56.21
2018-09-26T02:29:58.969Z,56.25
2018-09-26T02:30:30.616Z,56.25
2018-09-26T02:31:02.253Z,56.27
2018-09-26T02:31:33.843Z,56.21
2018-09-26T02:32:05.430Z,56.17
2018-09-26T02:32:37.035Z,56.16
2018-09-26T02:33:08.637Z,56.13
2018-09-26T02:33:40.216Z,55.96
2018-09-26T02:34:11.812Z,55.89
2018-09-26T02:34:43.415Z,55.75
2018-09-26T02:35:15.048Z,55.71
2018-09-26T02:35:46.636Z,55.56
2018-09-26T02:36:18.287Z,55.45
2018-09-26T02:36:49.884Z,55.37
2018-09-26T02:37:21.489Z,55.16
2018-09-26T02:37:53.120Z,55.16
2018-09-26T02:38:24.700Z,55.03
2018-09-26T02:38:56.306Z,55.09
2018-09-26T02:39:27.902Z,54.92
2018-09-26T02:39:59.503Z,54.85
2018-09-26T02:40:31.088Z,54.76
2018-09-26T02:41:02.734Z,54.88
2018-09-26T02:41:34.338Z,54.69
2018-09-26T02:42:05.947Z,54.66
2018-09-26T02:42:37.558Z,54.40
2018-09-26T02:43:09.148Z,54.32
2018-09-26T02:43:40.726Z,54.30
2018-09-26T02:44:12.330Z,54.26
2018-09-26T02:44:43.921Z,54.15
2018-09-26T02:45:15.566Z,54.23
2018-09-26T02:45:47.160Z,54.34
2018-09-26T02:46:18.803Z,54.29
2018-09-26T02:46:50.405Z,54.23
2018-09-26T02:47:22.010Z,54.23
2018-09-26T02:47:53.614Z,54.14
2018-09-26T02:48:25.199Z,54.02
2018-09-26T02:48:56.797Z,54.01
2018-09-26T02:49:28.404Z,53.97
2018-09-26T02:49:59.982Z,53.93
2018-09-26T02:50:31.581Z,53.53
2018-09-26T02:51:03.176Z,54.58
2018-09-26T02:51:34.779Z,53.69
2018-09-26T02:52:06.414Z,53.68
2018-09-26T02:52:38.065Z,53.75
2018-09-26T02:53:09.681Z,53.86
2018-09-26T02:53:41.275Z,53.83
2018-09-26T02:54:12.869Z,53.98
2018-09-26T02:54:44.450Z,54.45
2018-09-26T02:55:16.027Z,53.87
2018-09-26T02:55:47.626Z,53.40
2018-09-26T02:56:19.236Z,53.22
2018-09-26T02:56:50.828Z,53.17
2018-09-26T02:57:22.415Z,53.17
2018-09-26T02:57:54.005Z,53.19
2018-09-26T02:58:25.600Z,53.27
2018-09-26T02:58:57.201Z,53.32
2018-09-26T02:59:28.788Z,53.40
2018-09-26T03:00:00.390Z,53.56
2018-09-26T03:00:31.993Z,53.81
2018-09-26T03:01:03.576Z,53.94
2018-09-26T03:01:35.168Z,53.70
2018-09-26T03:02:06.774Z,53.93
2018-09-26T03:02:38.358Z,53.89
2018-09-26T03:03:09.998Z,53.79
2018-09-26T03:03:41.594Z,53.90
2018-09-26T03:04:13.207Z,53.80
2018-09-26T03:04:44.801Z,53.68
2018-09-26T03:05:16.406Z,53.69
2018-09-26T03:05:48.000Z,53.67
2018-09-26T03:06:19.588Z,53.77
2018-09-26T03:06:51.235Z,53.81
2018-09-26T03:07:22.829Z,53.87
2018-09-26T03:07:54.438Z,53.88
2018-09-26T03:08:26.055Z,53.91
2018-09-26T03:08:57.634Z,53.96
2018-09-26T03:09:29.292Z,53.90
2018-09-26T03:10:00.888Z,53.99
2018-09-26T03:10:32.509Z,54.00
2018-09-26T03:11:04.363Z,54.05
2018-09-26T03:11:36.251Z,54.05
2018-09-26T03:12:07.915Z,54.07
2018-09-26T03:12:39.744Z,54.05
2018-09-26T03:13:11.639Z,54.03
2018-09-26T03:13:43.537Z,54.00
2018-09-26T03:14:15.202Z,54.03
2018-09-26T03:14:46.946Z,54.01
2018-09-26T03:15:18.578Z,54.02
2018-09-26T03:15:50.182Z,54.04
2018-09-26T03:16:21.830Z,54.07
2018-09-26T03:16:53.424Z,54.09
2018-09-26T03:17:25.072Z,54.08
2018-09-26T03:17:56.659Z,54.08
2018-09-26T03:18:28.266Z,54.19
2018-09-26T03:18:59.875Z,54.19
2018-09-26T03:19:31.512Z,54.22
2018-09-26T03:20:03.108Z,54.21
2018-09-26T03:20:34.741Z,54.18
2018-09-26T03:21:06.336Z,54.24
2018-09-26T03:21:37.926Z,54.24
2018-09-26T03:22:09.520Z,54.32
2018-09-26T03:22:41.126Z,54.27
2018-09-26T03:23:12.717Z,54.30
2018-09-26T03:23:44.308Z,54.28
2018-09-26T03:24:15.896Z,54.42
2018-09-26T03:24:47.509Z,54.47
2018-09-26T03:25:19.160Z,54.54
2018-09-26T03:25:50.738Z,54.54
2018-09-26T03:26:22.333Z,54.53
2018-09-26T03:26:53.925Z,54.55
2018-09-26T03:27:25.572Z,54.62
2018-09-26T03:27:57.142Z,54.67
2018-09-26T03:28:28.737Z,54.71
2018-09-26T03:29:00.344Z,54.72
2018-09-26T03:29:31.937Z,54.73
2018-09-26T03:30:03.553Z,54.71
2018-09-26T03:30:35.199Z,54.70
2018-09-26T03:31:06.882Z,54.71
2018-09-26T03:31:38.455Z,54.72
2018-09-26T03:32:10.052Z,54.78
2018-09-26T03:32:41.644Z,54.77
2018-09-26T03:33:13.225Z,54.75
2018-09-26T03:33:44.875Z,54.80
2018-09-26T03:34:16.452Z,54.78
2018-09-26T03:34:48.054Z,54.72
2018-09-26T03:35:19.648Z,54.73
2018-09-26T03:35:51.256Z,54.79
2018-09-26T03:36:22.902Z,54.82
2018-09-26T03:36:54.497Z,54.77
2018-09-26T03:37:26.096Z,54.76
2018-09-26T03:37:57.674Z,54.87
2018-09-26T03:38:29.316Z,54.93
2018-09-26T03:39:00.904Z,54.90
2018-09-26T03:39:32.506Z,54.82
2018-09-26T03:40:04.111Z,54.92
2018-09-26T03:40:35.714Z,54.99
2018-09-26T03:41:07.318Z,55.02
2018-09-26T03:41:38.906Z,55.01
2018-09-26T03:42:10.506Z,55.04
2018-09-26T03:42:42.083Z,55.05
2018-09-26T03:43:13.670Z,55.09
2018-09-26T03:43:45.301Z,55.13
2018-09-26T03:44:16.950Z,55.13
2018-09-26T03:44:48.555Z,55.11
2018-09-26T03:45:20.143Z,55.14
2018-09-26T03:45:51.735Z,55.19
2018-09-26T03:46:23.332Z,55.15
2018-09-26T03:46:54.924Z,55.19
2018-09-26T03:47:26.527Z,55.15
2018-09-26T03:47:58.160Z,55.18
2018-09-26T03:48:29.771Z,55.15
2018-09-26T03:49:01.405Z,55.21
2018-09-26T03:49:33.006Z,55.25
2018-09-26T03:50:04.604Z,55.11
2018-09-26T03:50:36.198Z,55.17
2018-09-26T03:51:07.783Z,55.25
2018-09-26T03:51:39.376Z,55.21
2018-09-26T03:52:10.984Z,55.17
2018-09-26T03:52:42.595Z,55.16
2018-09-26T03:53:14.190Z,55.21
2018-09-26T03:53:45.807Z,55.17
2018-09-26T03:54:17.441Z,55.27
2018-09-26T03:54:49.028Z,55.28
2018-09-26T03:55:20.630Z,55.28
2018-09-26T03:55:52.222Z,55.31
2018-09-26T03:56:23.861Z,55.28
2018-09-26T03:56:55.443Z,55.28
2018-09-26T03:57:27.046Z,55.15
2018-09-26T03:57:58.636Z,55.30
2018-09-26T03:58:30.243Z,55.31
2018-09-26T03:59:01.846Z,55.34
2018-09-26T03:59:33.441Z,55.34
2018-09-26T04:00:05.024Z,55.32
2018-09-26T04:00:36.625Z,55.33
2018-09-26T04:01:08.252Z,55.31
2018-09-26T04:01:39.859Z,55.34
2018-09-26T04:02:11.452Z,55.34
2018-09-26T04:02:43.056Z,55.36
2018-09-26T04:03:14.656Z,55.33
2018-09-26T04:03:46.248Z,55.33
2018-09-26T04:04:17.850Z,55.36
2018-09-26T04:04:49.475Z,55.33
2018-09-26T04:05:21.091Z,55.35
2018-09-26T04:05:52.694Z,55.36
2018-09-26T04:06:24.284Z,55.34
2018-09-26T04:06:56.140Z,55.30
2018-09-26T04:07:27.771Z,55.35
2018-09-26T04:07:59.368Z,55.35
2018-09-26T04:08:30.952Z,55.37
2018-09-26T04:09:02.598Z,55.38
2018-09-26T04:09:34.197Z,55.39
2018-09-26T04:10:05.775Z,55.41
2018-09-26T04:10:37.382Z,55.38
2018-09-26T04:11:08.977Z,55.32
2018-09-26T04:11:40.620Z,55.35
2018-09-26T04:12:12.232Z,55.42
2018-09-26T04:12:43.906Z,55.38
2018-09-26T04:13:15.430Z,55.39
2018-09-26T04:13:47.024Z,55.28
2018-09-26T04:14:18.616Z,55.34
2018-09-26T04:14:50.216Z,55.41
2018-09-26T04:15:21.823Z,55.37
2018-09-26T04:15:53.430Z,55.41
2018-09-26T04:16:25.038Z,55.35
2018-09-26T04:16:56.680Z,55.36
2018-09-26T04:17:28.276Z,55.41
2018-09-26T04:17:59.872Z,55.43
2018-09-26T04:18:31.468Z,55.36
2018-09-26T04:19:03.065Z,55.44
2018-09-26T04:19:34.677Z,55.42
2018-09-26T04:20:06.269Z,55.35
2018-09-26T04:20:37.875Z,55.38
2018-09-26T04:21:09.469Z,55.35
2018-09-26T04:21:41.119Z,55.35
2018-09-26T04:22:12.729Z,55.34
2018-09-26T04:22:44.341Z,55.28
2018-09-26T04:23:15.946Z,55.30
2018-09-26T04:23:47.538Z,55.28
2018-09-26T04:24:19.160Z,55.27
2018-09-26T04:24:50.756Z,55.22
2018-09-26T04:25:22.349Z,55.15
2018-09-26T04:25:53.955Z,55.09
2018-09-26T04:26:25.671Z,55.02
2018-09-26T04:26:57.374Z,54.93
2018-09-26T04:27:28.965Z,54.96
2018-09-26T04:28:00.465Z,54.79
2018-09-26T04:28:32.069Z,54.78
2018-09-26T04:29:03.681Z,54.55
2018-09-26T04:29:35.283Z,54.48
2018-09-26T04:30:06.910Z,54.45
2018-09-26T04:30:38.512Z,54.34
2018-09-26T04:31:10.158Z,54.27
2018-09-26T04:31:41.762Z,54.19
2018-09-26T04:32:13.357Z,54.08
2018-09-26T04:32:45.100Z,54.10
2018-09-26T04:33:16.987Z,54.02
2018-09-26T04:33:48.275Z,53.97
2018-09-26T04:34:19.875Z,53.94
2018-09-26T04:34:51.468Z,53.87
2018-09-26T04:35:23.065Z,53.82
2018-09-26T04:35:54.670Z,53.82
2018-09-26T04:36:26.282Z,53.75
2018-09-26T04:36:57.877Z,53.72
2018-09-26T04:37:29.613Z,53.69
2018-09-26T04:38:01.209Z,53.64
2018-09-26T04:38:32.854Z,53.58
2018-09-26T04:39:04.422Z,53.53
2018-09-26T04:39:36.006Z,53.50
2018-09-26T04:40:07.601Z,53.42
2018-09-26T04:40:39.203Z,53.39
2018-09-26T04:41:10.798Z,53.36
2018-09-26T04:41:42.428Z,53.35
2018-09-26T04:42:14.038Z,53.31
2018-09-26T04:42:45.646Z,53.28
2018-09-26T04:43:17.335Z,53.24
2018-09-26T04:43:48.886Z,53.22
2018-09-26T04:44:20.480Z,53.17
2018-09-26T04:44:52.066Z,53.14
2018-09-26T04:45:23.667Z,53.14
2018-09-26T04:45:55.260Z,53.12
2018-09-26T04:46:26.848Z,53.08
2018-09-26T04:46:58.426Z,53.06
2018-09-26T04:47:30.025Z,53.03
2018-09-26T04:48:01.664Z,53.02
2018-09-26T04:48:33.246Z,53.01
2018-09-26T04:49:04.841Z,53.00
2018-09-26T04:49:36.446Z,53.03
2018-09-26T04:50:08.051Z,53.02
2018-09-26T04:50:39.695Z,53.03
2018-09-26T04:51:11.295Z,53.01
2018-09-26T04:51:42.903Z,53.03
2018-09-26T04:52:14.496Z,53.02
2018-09-26T04:52:46.089Z,53.01
2018-09-26T04:53:17.735Z,53.01
2018-09-26T04:53:49.314Z,53.00
2018-09-26T04:54:20.909Z,53.03
2018-09-26T04:54:52.522Z,53.02
2018-09-26T04:55:24.136Z,53.00
2018-09-26T04:55:55.715Z,53.00
2018-09-26T04:56:27.315Z,53.00
2018-09-26T04:56:58.908Z,53.02
2018-09-26T04:57:30.533Z,53.04
2018-09-26T04:58:02.245Z,53.05
2018-09-26T04:58:33.761Z,53.06
2018-09-26T04:59:05.371Z,53.05
2018-09-26T04:59:36.978Z,53.05
2018-09-26T05:00:08.573Z,53.07
2018-09-26T05:00:40.187Z,53.06
2018-09-26T05:01:11.776Z,53.08
2018-09-26T05:01:43.379Z,53.13
2018-09-26T05:02:14.968Z,53.17
2018-09-26T05:02:46.588Z,53.17
2018-09-26T05:03:18.185Z,53.17
2018-09-26T05:03:49.772Z,53.20
2018-09-26T05:04:21.386Z,53.19
2018-09-26T05:04:52.999Z,53.22
2018-09-26T05:05:24.588Z,53.23
2018-09-26T05:05:56.166Z,53.28
2018-09-26T05:06:27.761Z,53.29
2018-09-26T05:06:59.346Z,53.24
2018-09-26T05:07:30.958Z,53.25
2018-09-26T05:08:02.534Z,53.27
2018-09-26T05:08:34.124Z,53.30
2018-09-26T05:09:05.717Z,53.35
2018-09-26T05:09:37.346Z,53.38
2018-09-26T05:10:08.937Z,53.36
2018-09-26T05:10:40.528Z,53.37
2018-09-26T05:11:12.116Z,53.38
2018-09-26T05:11:43.721Z,53.38
2018-09-26T05:12:15.326Z,53.41
2018-09-26T05:12:46.921Z,53.43
2018-09-26T05:13:18.529Z,53.39
2018-09-26T05:13:50.135Z,53.48
2018-09-26T05:14:21.747Z,53.50
2018-09-26T05:14:53.394Z,53.59
2018-09-26T05:15:24.984Z,53.63
2018-09-26T05:15:56.594Z,53.61
2018-09-26T05:16:28.201Z,53.67
2018-09-26T05:16:59.789Z,53.72
2018-09-26T05:17:31.426Z,53.71
2018-09-26T05:18:03.034Z,53.71
2018-09-26T05:18:34.642Z,53.75
2018-09-26T05:19:06.253Z,53.80
2018-09-26T05:19:37.854Z,53.84
2018-09-26T05:20:09.449Z,53.82
2018-09-26T05:20:41.090Z,53.86
2018-09-26T05:21:12.684Z,53.86
2018-09-26T05:21:44.262Z,53.84
2018-09-26T05:22:15.860Z,53.79
2018-09-26T05:22:47.508Z,53.83
2018-09-26T05:23:19.073Z,53.84
2018-09-26T05:23:50.670Z,53.86
2018-09-26T05:24:22.278Z,53.87
2018-09-26T05:24:53.882Z,53.86
2018-09-26T05:25:25.517Z,53.85
2018-09-26T05:25:57.123Z,53.86
2018-09-26T05:26:28.704Z,53.88
2018-09-26T05:27:00.296Z,53.84
2018-09-26T05:27:31.888Z,53.90
2018-09-26T05:28:03.481Z,53.88
2018-09-26T05:28:35.098Z,53.91
2018-09-26T05:29:06.726Z,53.92
2018-09-26T05:29:38.323Z,54.04
2018-09-26T05:30:09.975Z,54.02
2018-09-26T05:30:41.562Z,54.06
2018-09-26T05:31:13.153Z,54.09
2018-09-26T05:31:44.755Z,54.08
2018-09-26T05:32:16.344Z,54.08
2018-09-26T05:32:47.979Z,54.09
2018-09-26T05:33:19.607Z,54.11
2018-09-26T05:33:51.210Z,54.14
2018-09-26T05:34:22.809Z,54.15
2018-09-26T05:34:54.405Z,54.20
2018-09-26T05:35:25.996Z,54.22
2018-09-26T05:35:57.599Z,54.19
2018-09-26T05:36:29.200Z,54.26
2018-09-26T05:37:00.788Z,54.26
2018-09-26T05:37:32.422Z,54.30
2018-09-26T05:38:04.008Z,54.29
2018-09-26T05:38:35.590Z,54.32
2018-09-26T05:39:07.223Z,54.34
2018-09-26T05:39:38.794Z,54.35
2018-09-26T05:40:10.373Z,54.40
2018-09-26T05:40:42.013Z,54.34
2018-09-26T05:41:13.612Z,54.37
2018-09-26T05:41:45.335Z,54.38
2018-09-26T05:42:16.855Z,54.38
2018-09-26T05:42:48.504Z,54.45
2018-09-26T05:43:20.150Z,54.43
2018-09-26T05:43:51.751Z,54.46
2018-09-26T05:44:23.330Z,54.50
2018-09-26T05:44:54.925Z,54.52
2018-09-26T05:45:26.521Z,54.54
2018-09-26T05:45:58.117Z,54.55
2018-09-26T05:46:29.709Z,54.59
2018-09-26T05:47:01.337Z,54.59
2018-09-26T05:47:32.978Z,54.57
2018-09-26T05:48:04.573Z,54.58
2018-09-26T05:48:36.157Z,54.58
2018-09-26T05:49:07.744Z,54.57
2018-09-26T05:49:39.325Z,54.54
2018-09-26T05:50:10.959Z,54.54
2018-09-26T05:50:42.550Z,54.53
2018-09-26T05:51:14.136Z,54.58
2018-09-26T05:51:45.785Z,54.63
2018-09-26T05:52:17.380Z,54.66
2018-09-26T05:52:48.972Z,54.61
2018-09-26T05:53:20.635Z,54.60
2018-09-26T05:53:52.228Z,54.58
2018-09-26T05:54:23.825Z,54.61
2018-09-26T05:54:55.430Z,54.67
2018-09-26T05:55:27.015Z,54.71
2018-09-26T05:55:58.658Z,54.71
2018-09-26T05:56:30.244Z,54.72
2018-09-26T05:57:01.819Z,54.72
2018-09-26T05:57:33.408Z,54.77
2018-09-26T05:58:04.990Z,54.82
2018-09-26T05:58:36.580Z,54.83
2018-09-26T05:59:08.187Z,54.80
2018-09-26T05:59:39.791Z,54.78
2018-09-26T06:00:11.387Z,54.83
2018-09-26T06:00:43.020Z,54.83
2018-09-26T06:01:14.626Z,54.86
2018-09-26T06:01:46.230Z,54.89
2018-09-26T06:02:17.864Z,54.88
2018-09-26T06:02:49.452Z,54.91
2018-09-26T06:03:21.048Z,54.95
2018-09-26T06:03:52.654Z,54.98
2018-09-26T06:04:24.255Z,55.00
2018-09-26T06:04:55.889Z,54.97
2018-09-26T06:05:27.500Z,54.98
2018-09-26T06:05:59.091Z,55.00
2018-09-26T06:06:30.687Z,54.99
2018-09-26T06:07:02.295Z,54.99
2018-09-26T06:07:33.931Z,55.00
2018-09-26T06:08:05.511Z,55.02
2018-09-26T06:08:37.155Z,55.00
2018-09-26T06:09:08.793Z,54.98
2018-09-26T06:09:40.389Z,54.95
2018-09-26T06:10:11.989Z,54.93
2018-09-26T06:10:43.585Z,54.93
2018-09-26T06:11:15.176Z,54.93
2018-09-26T06:11:46.768Z,54.93
2018-09-26T06:12:18.374Z,54.90
2018-09-26T06:12:49.995Z,54.85
2018-09-26T06:13:21.639Z,54.80
2018-09-26T06:13:53.242Z,54.72
2018-09-26T06:14:24.832Z,54.63
2018-09-26T06:14:56.435Z,54.57
2018-09-26T06:15:28.024Z,54.54
2018-09-26T06:15:59.634Z,54.51
2018-09-26T06:16:31.250Z,54.46
2018-09-26T06:17:02.849Z,54.47
2018-09-26T06:17:34.480Z,54.39
2018-09-26T06:18:06.082Z,54.29
2018-09-26T06:18:37.663Z,54.23
2018-09-26T06:19:09.259Z,54.24
2018-09-26T06:19:40.877Z,54.16
2018-09-26T06:20:12.482Z,54.06
2018-09-26T06:20:44.082Z,54.04
2018-09-26T06:21:15.690Z,54.01
2018-09-26T06:21:47.336Z,53.94
2018-09-26T06:22:18.943Z,53.85
2018-09-26T06:22:50.546Z,53.84
2018-09-26T06:23:22.135Z,53.84
2018-09-26T06:23:53.765Z,53.76
2018-09-26T06:24:25.365Z,53.72
2018-09-26T06:24:56.964Z,53.71
2018-09-26T06:25:28.547Z,53.67
2018-09-26T06:26:00.155Z,53.64
2018-09-26T06:26:31.735Z,53.63
2018-09-26T06:27:03.328Z,53.64
2018-09-26T06:27:34.962Z,53.62
2018-09-26T06:28:06.570Z,53.59
2018-09-26T06:28:38.165Z,53.55
2018-09-26T06:29:09.771Z,53.51
2018-09-26T06:29:41.361Z,53.54
2018-09-26T06:30:12.997Z,53.48
2018-09-26T06:30:44.632Z,53.44
2018-09-26T06:31:16.224Z,53.39
2018-09-26T06:31:47.811Z,53.36
2018-09-26T06:32:19.404Z,53.34
2018-09-26T06:32:51.006Z,53.33
2018-09-26T06:33:22.600Z,53.30
2018-09-26T06:33:54.196Z,53.29
2018-09-26T06:34:25.799Z,53.24
2018-09-26T06:34:57.445Z,53.22
2018-09-26T06:35:29.067Z,53.21
2018-09-26T06:36:00.660Z,53.18
2018-09-26T06:36:32.252Z,53.17
2018-09-26T06:37:03.844Z,53.16
2018-09-26T06:37:35.427Z,53.14
2018-09-26T06:38:07.002Z,53.12
2018-09-26T06:38:38.589Z,53.14
2018-09-26T06:39:10.167Z,53.12
2018-09-26T06:39:41.781Z,53.11
2018-09-26T06:40:13.387Z,53.11
2018-09-26T06:40:44.987Z,53.09
2018-09-26T06:41:16.597Z,53.04
2018-09-26T06:41:48.188Z,53.08
2018-09-26T06:42:19.800Z,53.10
2018-09-26T06:42:51.397Z,53.03
2018-09-26T06:43:23.004Z,53.04
2018-09-26T06:43:54.600Z,53.07
2018-09-26T06:44:26.196Z,53.07
2018-09-26T06:44:57.798Z,53.09
2018-09-26T06:45:29.387Z,53.08
2018-09-26T06:46:00.988Z,53.07
2018-09-26T06:46:32.567Z,53.08
2018-09-26T06:47:04.152Z,53.09